sensor_id;sensor_type;location;lat;lon;timestamp;P1;durP1;ratioP1;P2;durP2;ratioP2
51995;SDS011;38010;53.264;6.592;2022-10-16T00:01:28;0.50;;;0.40;;
51995;SDS011;38010;53.264;6.592;2022-10-16T00:03:56;0.50;;;0.50;;
51995;SDS011;38010;53.264;6.592;2022-10-16T00:06:23;0.68;;;0.57;;
51995;SDS011;38010;53.264;6.592;2022-10-16T00:08:50;1.40;;;0.55;;
51995;SDS011;38010;53.264;6.592;2022-10-16T00:11:20;0.65;;;0.40;;
51995;SDS011;38010;53.264;6.592;2022-10-16T00:13:48;0.68;;;0.47;;
51995;SDS011;38010;53.264;6.592;2022-10-16T00:16:15;0.68;;;0.50;;
51995;SDS011;38010;53.264;6.592;2022-10-16T00:18:42;0.93;;;0.50;;
51995;SDS011;38010;53.264;6.592;2022-10-16T00:21:13;0.98;;;0.65;;
51995;SDS011;38010;53.264;6.592;2022-10-16T00:23:40;1.00;;;0.60;;
51995;SDS011;38010;53.264;6.592;2022-10-16T00:26:08;0.63;;;0.50;;
51995;SDS011;38010;53.264;6.592;2022-10-16T00:28:35;0.95;;;0.50;;
51995;SDS011;38010;53.264;6.592;2022-10-16T00:31:05;0.43;;;0.40;;
51995;SDS011;38010;53.264;6.592;2022-10-16T00:33:33;0.73;;;0.40;;
51995;SDS011;38010;53.264;6.592;2022-10-16T00:35:59;0.90;;;0.50;;
51995;SDS011;38010;53.264;6.592;2022-10-16T00:38:26;0.80;;;0.47;;
51995;SDS011;38010;53.264;6.592;2022-10-16T00:40:52;0.40;;;0.40;;
51995;SDS011;38010;53.264;6.592;2022-10-16T00:43:38;0.95;;;0.55;;
51995;SDS011;38010;53.264;6.592;2022-10-16T00:48:45;0.50;;;0.50;;
51995;SDS011;38010;53.264;6.592;2022-10-16T00:51:18;0.75;;;0.50;;
51995;SDS011;38010;53.264;6.592;2022-10-16T00:53:46;0.47;;;0.47;;
51995;SDS011;38010;53.264;6.592;2022-10-16T00:56:14;0.90;;;0.60;;
51995;SDS011;38010;53.264;6.592;2022-10-16T00:58:39;0.60;;;0.50;;
51995;SDS011;38010;53.264;6.592;2022-10-16T01:01:05;0.60;;;0.60;;
51995;SDS011;38010;53.264;6.592;2022-10-16T01:03:32;1.30;;;0.60;;
51995;SDS011;38010;53.264;6.592;2022-10-16T01:06:04;0.50;;;0.50;;
51995;SDS011;38010;53.264;6.592;2022-10-16T01:08:48;0.90;;;0.57;;
51995;SDS011;38010;53.264;6.592;2022-10-16T01:11:27;1.10;;;0.60;;
51995;SDS011;38010;53.264;6.592;2022-10-16T01:14:24;1.20;;;0.68;;
51995;SDS011;38010;53.264;6.592;2022-10-16T01:17:13;0.82;;;0.50;;
51995;SDS011;38010;53.264;6.592;2022-10-16T01:22:33;0.60;;;0.50;;
51995;SDS011;38010;53.264;6.592;2022-10-16T01:25:25;0.77;;;0.53;;
51995;SDS011;38010;53.264;6.592;2022-10-16T01:28:02;0.50;;;0.50;;
51995;SDS011;38010;53.264;6.592;2022-10-16T01:30:32;1.38;;;0.55;;
51995;SDS011;38010;53.264;6.592;2022-10-16T01:33:06;0.65;;;0.50;;
51995;SDS011;38010;53.264;6.592;2022-10-16T01:35:41;1.30;;;0.50;;
51995;SDS011;38010;53.264;6.592;2022-10-16T01:38:15;0.50;;;0.50;;
51995;SDS011;38010;53.264;6.592;2022-10-16T01:40:49;1.02;;;0.60;;
51995;SDS011;38010;53.264;6.592;2022-10-16T01:43:25;0.60;;;0.50;;
51995;SDS011;38010;53.264;6.592;2022-10-16T01:45:56;1.15;;;0.60;;
51995;SDS011;38010;53.264;6.592;2022-10-16T01:48:24;0.75;;;0.50;;
51995;SDS011;38010;53.264;6.592;2022-10-16T01:50:58;0.57;;;0.47;;
51995;SDS011;38010;53.264;6.592;2022-10-16T01:53:28;0.60;;;0.50;;
51995;SDS011;38010;53.264;6.592;2022-10-16T01:55:55;0.52;;;0.40;;
51995;SDS011;38010;53.264;6.592;2022-10-16T01:58:23;0.60;;;0.60;;
51995;SDS011;38010;53.264;6.592;2022-10-16T02:00:50;0.77;;;0.57;;
51995;SDS011;38010;53.264;6.592;2022-10-16T02:03:19;1.02;;;0.70;;
51995;SDS011;38010;53.264;6.592;2022-10-16T02:05:53;0.60;;;0.50;;
51995;SDS011;38010;53.264;6.592;2022-10-16T02:08:22;1.02;;;0.60;;
51995;SDS011;38010;53.264;6.592;2022-10-16T02:10:49;0.50;;;0.40;;
51995;SDS011;38010;53.264;6.592;2022-10-16T02:13:17;0.68;;;0.50;;
51995;SDS011;38010;53.264;6.592;2022-10-16T02:16:02;0.40;;;0.40;;
51995;SDS011;38010;53.264;6.592;2022-10-16T02:18:28;1.27;;;0.40;;
51995;SDS011;38010;53.264;6.592;2022-10-16T02:20:59;0.82;;;0.50;;
51995;SDS011;38010;53.264;6.592;2022-10-16T02:23:37;0.55;;;0.40;;
51995;SDS011;38010;53.264;6.592;2022-10-16T02:26:22;0.50;;;0.47;;
51995;SDS011;38010;53.264;6.592;2022-10-16T02:28:55;0.50;;;0.38;;
51995;SDS011;38010;53.264;6.592;2022-10-16T02:31:27;0.70;;;0.50;;
51995;SDS011;38010;53.264;6.592;2022-10-16T02:33:56;0.73;;;0.50;;
51995;SDS011;38010;53.264;6.592;2022-10-16T02:36:24;0.50;;;0.50;;
51995;SDS011;38010;53.264;6.592;2022-10-16T02:38:51;0.60;;;0.40;;
51995;SDS011;38010;53.264;6.592;2022-10-16T02:41:18;0.57;;;0.40;;
51995;SDS011;38010;53.264;6.592;2022-10-16T02:43:46;0.68;;;0.50;;
51995;SDS011;38010;53.264;6.592;2022-10-16T02:46:11;0.73;;;0.40;;
51995;SDS011;38010;53.264;6.592;2022-10-16T02:48:37;0.30;;;0.30;;
51995;SDS011;38010;53.264;6.592;2022-10-16T02:51:04;1.08;;;0.50;;
51995;SDS011;38010;53.264;6.592;2022-10-16T02:53:30;0.70;;;0.50;;
51995;SDS011;38010;53.264;6.592;2022-10-16T02:55:55;0.70;;;0.47;;
51995;SDS011;38010;53.264;6.592;2022-10-16T02:58:21;0.65;;;0.50;;
51995;SDS011;38010;53.264;6.592;2022-10-16T03:00:47;0.60;;;0.50;;
51995;SDS011;38010;53.264;6.592;2022-10-16T03:03:12;0.70;;;0.50;;
51995;SDS011;38010;53.264;6.592;2022-10-16T03:05:38;0.50;;;0.50;;
51995;SDS011;38010;53.264;6.592;2022-10-16T03:08:04;0.30;;;0.30;;
51995;SDS011;38010;53.264;6.592;2022-10-16T03:10:29;0.43;;;0.40;;
51995;SDS011;38010;53.264;6.592;2022-10-16T03:12:55;0.50;;;0.30;;
51995;SDS011;38010;53.264;6.592;2022-10-16T03:15:21;0.30;;;0.30;;
51995;SDS011;38010;53.264;6.592;2022-10-16T03:17:47;0.98;;;0.32;;
51995;SDS011;38010;53.264;6.592;2022-10-16T03:20:12;0.88;;;0.40;;
51995;SDS011;38010;53.264;6.592;2022-10-16T03:22:38;0.88;;;0.50;;
51995;SDS011;38010;53.264;6.592;2022-10-16T03:25:04;0.60;;;0.50;;
51995;SDS011;38010;53.264;6.592;2022-10-16T03:27:30;0.43;;;0.40;;
51995;SDS011;38010;53.264;6.592;2022-10-16T03:29:56;0.70;;;0.40;;
51995;SDS011;38010;53.264;6.592;2022-10-16T03:32:21;0.77;;;0.40;;
51995;SDS011;38010;53.264;6.592;2022-10-16T03:34:47;0.47;;;0.40;;
51995;SDS011;38010;53.264;6.592;2022-10-16T03:37:13;0.63;;;0.50;;
51995;SDS011;38010;53.264;6.592;2022-10-16T03:39:38;0.40;;;0.40;;
51995;SDS011;38010;53.264;6.592;2022-10-16T03:42:04;0.68;;;0.40;;
51995;SDS011;38010;53.264;6.592;2022-10-16T03:44:30;1.52;;;0.50;;
51995;SDS011;38010;53.264;6.592;2022-10-16T03:46:55;0.85;;;0.40;;
51995;SDS011;38010;53.264;6.592;2022-10-16T03:49:21;0.47;;;0.40;;
51995;SDS011;38010;53.264;6.592;2022-10-16T03:51:46;0.45;;;0.40;;
51995;SDS011;38010;53.264;6.592;2022-10-16T03:54:12;0.43;;;0.40;;
51995;SDS011;38010;53.264;6.592;2022-10-16T03:56:38;1.10;;;0.40;;
51995;SDS011;38010;53.264;6.592;2022-10-16T03:59:03;1.08;;;0.50;;
51995;SDS011;38010;53.264;6.592;2022-10-16T04:01:29;0.40;;;0.40;;
51995;SDS011;38010;53.264;6.592;2022-10-16T04:03:55;1.02;;;0.60;;
51995;SDS011;38010;53.264;6.592;2022-10-16T04:06:20;0.40;;;0.40;;
51995;SDS011;38010;53.264;6.592;2022-10-16T04:08:46;1.05;;;0.50;;
51995;SDS011;38010;53.264;6.592;2022-10-16T04:11:12;0.50;;;0.38;;
51995;SDS011;38010;53.264;6.592;2022-10-16T04:13:37;0.65;;;0.40;;
51995;SDS011;38010;53.264;6.592;2022-10-16T04:16:03;0.45;;;0.35;;
51995;SDS011;38010;53.264;6.592;2022-10-16T04:18:29;1.17;;;0.40;;
51995;SDS011;38010;53.264;6.592;2022-10-16T04:20:55;0.40;;;0.30;;
51995;SDS011;38010;53.264;6.592;2022-10-16T04:23:21;0.32;;;0.30;;
51995;SDS011;38010;53.264;6.592;2022-10-16T04:25:48;0.40;;;0.40;;
51995;SDS011;38010;53.264;6.592;2022-10-16T04:28:13;0.40;;;0.40;;
51995;SDS011;38010;53.264;6.592;2022-10-16T04:30:39;1.02;;;0.30;;
51995;SDS011;38010;53.264;6.592;2022-10-16T04:33:05;0.47;;;0.40;;
51995;SDS011;38010;53.264;6.592;2022-10-16T04:35:30;0.45;;;0.30;;
51995;SDS011;38010;53.264;6.592;2022-10-16T04:37:59;0.40;;;0.40;;
51995;SDS011;38010;53.264;6.592;2022-10-16T04:40:24;0.57;;;0.40;;
51995;SDS011;38010;53.264;6.592;2022-10-16T04:42:50;0.45;;;0.40;;
51995;SDS011;38010;53.264;6.592;2022-10-16T04:45:16;0.32;;;0.32;;
51995;SDS011;38010;53.264;6.592;2022-10-16T04:47:42;0.35;;;0.35;;
51995;SDS011;38010;53.264;6.592;2022-10-16T04:50:08;0.38;;;0.38;;
51995;SDS011;38010;53.264;6.592;2022-10-16T04:52:33;0.30;;;0.30;;
51995;SDS011;38010;53.264;6.592;2022-10-16T04:54:59;0.82;;;0.40;;
51995;SDS011;38010;53.264;6.592;2022-10-16T04:57:27;0.65;;;0.35;;
51995;SDS011;38010;53.264;6.592;2022-10-16T04:59:54;0.50;;;0.50;;
51995;SDS011;38010;53.264;6.592;2022-10-16T05:02:20;0.30;;;0.30;;
51995;SDS011;38010;53.264;6.592;2022-10-16T05:04:46;0.50;;;0.40;;
51995;SDS011;38010;53.264;6.592;2022-10-16T05:07:11;0.30;;;0.30;;
51995;SDS011;38010;53.264;6.592;2022-10-16T05:09:37;0.65;;;0.30;;
51995;SDS011;38010;53.264;6.592;2022-10-16T05:12:03;1.13;;;0.28;;
51995;SDS011;38010;53.264;6.592;2022-10-16T05:14:29;0.30;;;0.30;;
51995;SDS011;38010;53.264;6.592;2022-10-16T05:16:55;0.30;;;0.30;;
51995;SDS011;38010;53.264;6.592;2022-10-16T05:19:20;1.05;;;0.40;;
51995;SDS011;38010;53.264;6.592;2022-10-16T05:21:46;0.65;;;0.40;;
51995;SDS011;38010;53.264;6.592;2022-10-16T05:24:12;0.60;;;0.30;;
51995;SDS011;38010;53.264;6.592;2022-10-16T05:26:37;0.30;;;0.30;;
51995;SDS011;38010;53.264;6.592;2022-10-16T05:29:03;0.95;;;0.40;;
51995;SDS011;38010;53.264;6.592;2022-10-16T05:31:29;0.40;;;0.40;;
51995;SDS011;38010;53.264;6.592;2022-10-16T05:34:01;0.30;;;0.30;;
51995;SDS011;38010;53.264;6.592;2022-10-16T05:36:27;0.60;;;0.50;;
51995;SDS011;38010;53.264;6.592;2022-10-16T05:38:52;0.30;;;0.30;;
51995;SDS011;38010;53.264;6.592;2022-10-16T05:41:19;0.30;;;0.30;;
51995;SDS011;38010;53.264;6.592;2022-10-16T05:43:46;0.30;;;0.30;;
51995;SDS011;38010;53.264;6.592;2022-10-16T05:46:12;0.30;;;0.30;;
51995;SDS011;38010;53.264;6.592;2022-10-16T05:48:38;0.40;;;0.40;;
51995;SDS011;38010;53.264;6.592;2022-10-16T05:51:05;0.90;;;0.50;;
51995;SDS011;38010;53.264;6.592;2022-10-16T05:53:33;1.05;;;0.30;;
51995;SDS011;38010;53.264;6.592;2022-10-16T05:56:00;0.30;;;0.30;;
51995;SDS011;38010;53.264;6.592;2022-10-16T05:58:30;0.30;;;0.30;;
51995;SDS011;38010;53.264;6.592;2022-10-16T06:01:03;0.52;;;0.40;;
51995;SDS011;38010;53.264;6.592;2022-10-16T06:03:36;0.93;;;0.40;;
51995;SDS011;38010;53.264;6.592;2022-10-16T06:06:09;0.93;;;0.85;;
51995;SDS011;38010;53.264;6.592;2022-10-16T06:08:36;1.35;;;0.50;;
51995;SDS011;38010;53.264;6.592;2022-10-16T06:11:03;0.55;;;0.40;;
51995;SDS011;38010;53.264;6.592;2022-10-16T06:13:30;0.80;;;0.40;;
51995;SDS011;38010;53.264;6.592;2022-10-16T06:15:56;0.45;;;0.38;;
51995;SDS011;38010;53.264;6.592;2022-10-16T06:18:24;0.38;;;0.38;;
51995;SDS011;38010;53.264;6.592;2022-10-16T06:20:50;1.35;;;0.60;;
51995;SDS011;38010;53.264;6.592;2022-10-16T06:23:16;1.05;;;0.50;;
51995;SDS011;38010;53.264;6.592;2022-10-16T06:25:41;0.60;;;0.40;;
51995;SDS011;38010;53.264;6.592;2022-10-16T06:28:07;0.40;;;0.32;;
51995;SDS011;38010;53.264;6.592;2022-10-16T06:30:32;0.63;;;0.40;;
51995;SDS011;38010;53.264;6.592;2022-10-16T06:32:58;0.40;;;0.40;;
51995;SDS011;38010;53.264;6.592;2022-10-16T06:35:24;0.40;;;0.40;;
51995;SDS011;38010;53.264;6.592;2022-10-16T06:37:49;0.80;;;0.45;;
51995;SDS011;38010;53.264;6.592;2022-10-16T06:40:15;0.95;;;0.40;;
51995;SDS011;38010;53.264;6.592;2022-10-16T06:42:41;1.38;;;0.40;;
51995;SDS011;38010;53.264;6.592;2022-10-16T06:45:07;0.95;;;0.40;;
51995;SDS011;38010;53.264;6.592;2022-10-16T06:47:33;0.40;;;0.40;;
51995;SDS011;38010;53.264;6.592;2022-10-16T06:49:58;0.30;;;0.30;;
51995;SDS011;38010;53.264;6.592;2022-10-16T06:52:24;0.77;;;0.47;;
51995;SDS011;38010;53.264;6.592;2022-10-16T06:54:52;1.40;;;0.40;;
51995;SDS011;38010;53.264;6.592;2022-10-16T06:57:17;0.40;;;0.40;;
51995;SDS011;38010;53.264;6.592;2022-10-16T06:59:43;0.50;;;0.35;;
51995;SDS011;38010;53.264;6.592;2022-10-16T07:02:09;0.65;;;0.35;;
51995;SDS011;38010;53.264;6.592;2022-10-16T07:04:35;0.55;;;0.30;;
51995;SDS011;38010;53.264;6.592;2022-10-16T07:07:01;0.40;;;0.40;;
51995;SDS011;38010;53.264;6.592;2022-10-16T07:09:27;0.40;;;0.40;;
51995;SDS011;38010;53.264;6.592;2022-10-16T07:11:52;0.40;;;0.40;;
51995;SDS011;38010;53.264;6.592;2022-10-16T07:14:19;0.55;;;0.40;;
51995;SDS011;38010;53.264;6.592;2022-10-16T07:16:46;0.65;;;0.40;;
51995;SDS011;38010;53.264;6.592;2022-10-16T07:19:12;0.75;;;0.40;;
51995;SDS011;38010;53.264;6.592;2022-10-16T07:21:40;0.65;;;0.40;;
51995;SDS011;38010;53.264;6.592;2022-10-16T07:24:06;0.50;;;0.40;;
51995;SDS011;38010;53.264;6.592;2022-10-16T07:26:36;0.50;;;0.40;;
51995;SDS011;38010;53.264;6.592;2022-10-16T07:29:04;0.50;;;0.40;;
51995;SDS011;38010;53.264;6.592;2022-10-16T07:31:31;0.68;;;0.50;;
51995;SDS011;38010;53.264;6.592;2022-10-16T07:33:57;0.50;;;0.40;;
51995;SDS011;38010;53.264;6.592;2022-10-16T07:36:24;0.45;;;0.40;;
51995;SDS011;38010;53.264;6.592;2022-10-16T07:38:50;1.17;;;0.40;;
51995;SDS011;38010;53.264;6.592;2022-10-16T07:41:17;0.40;;;0.40;;
51995;SDS011;38010;53.264;6.592;2022-10-16T07:43:51;1.00;;;0.47;;
51995;SDS011;38010;53.264;6.592;2022-10-16T07:46:18;0.47;;;0.40;;
51995;SDS011;38010;53.264;6.592;2022-10-16T07:48:44;0.70;;;0.50;;
51995;SDS011;38010;53.264;6.592;2022-10-16T07:51:13;2.47;;;0.52;;
51995;SDS011;38010;53.264;6.592;2022-10-16T07:53:43;0.95;;;0.50;;
51995;SDS011;38010;53.264;6.592;2022-10-16T07:56:09;1.17;;;0.50;;
51995;SDS011;38010;53.264;6.592;2022-10-16T07:58:36;0.40;;;0.40;;
51995;SDS011;38010;53.264;6.592;2022-10-16T08:01:03;0.70;;;0.47;;
51995;SDS011;38010;53.264;6.592;2022-10-16T08:03:30;0.60;;;0.47;;
51995;SDS011;38010;53.264;6.592;2022-10-16T08:05:56;0.50;;;0.50;;
51995;SDS011;38010;53.264;6.592;2022-10-16T08:08:23;1.33;;;0.50;;
51995;SDS011;38010;53.264;6.592;2022-10-16T08:10:49;0.60;;;0.40;;
51995;SDS011;38010;53.264;6.592;2022-10-16T08:13:15;0.60;;;0.50;;
51995;SDS011;38010;53.264;6.592;2022-10-16T08:15:41;0.57;;;0.40;;
51995;SDS011;38010;53.264;6.592;2022-10-16T08:18:08;0.55;;;0.40;;
51995;SDS011;38010;53.264;6.592;2022-10-16T08:20:35;1.75;;;0.50;;
51995;SDS011;38010;53.264;6.592;2022-10-16T08:23:01;0.50;;;0.50;;
51995;SDS011;38010;53.264;6.592;2022-10-16T08:25:27;0.55;;;0.47;;
51995;SDS011;38010;53.264;6.592;2022-10-16T08:27:53;0.88;;;0.38;;
51995;SDS011;38010;53.264;6.592;2022-10-16T08:30:19;1.73;;;0.50;;
51995;SDS011;38010;53.264;6.592;2022-10-16T08:32:46;0.40;;;0.40;;
51995;SDS011;38010;53.264;6.592;2022-10-16T08:35:12;0.40;;;0.40;;
51995;SDS011;38010;53.264;6.592;2022-10-16T08:37:39;1.58;;;0.47;;
51995;SDS011;38010;53.264;6.592;2022-10-16T08:40:06;0.40;;;0.40;;
51995;SDS011;38010;53.264;6.592;2022-10-16T08:42:53;0.45;;;0.45;;
51995;SDS011;38010;53.264;6.592;2022-10-16T08:48:00;0.40;;;0.40;;
51995;SDS011;38010;53.264;6.592;2022-10-16T08:50:31;0.40;;;0.40;;
51995;SDS011;38010;53.264;6.592;2022-10-16T08:53:01;0.65;;;0.40;;
51995;SDS011;38010;53.264;6.592;2022-10-16T08:56:03;0.45;;;0.43;;
51995;SDS011;38010;53.264;6.592;2022-10-16T08:58:27;0.50;;;0.50;;
51995;SDS011;38010;53.264;6.592;2022-10-16T09:00:55;0.73;;;0.40;;
51995;SDS011;38010;53.264;6.592;2022-10-16T09:11:30;0.45;;;0.30;;
51995;SDS011;38010;53.264;6.592;2022-10-16T09:17:03;0.40;;;0.40;;
51995;SDS011;38010;53.264;6.592;2022-10-16T09:19:50;2.42;;;0.57;;
51995;SDS011;38010;53.264;6.592;2022-10-16T09:22:19;0.60;;;0.40;;
51995;SDS011;38010;53.264;6.592;2022-10-16T09:24:50;0.50;;;0.40;;
51995;SDS011;38010;53.264;6.592;2022-10-16T09:27:16;0.43;;;0.40;;
51995;SDS011;38010;53.264;6.592;2022-10-16T09:29:42;0.40;;;0.40;;
51995;SDS011;38010;53.264;6.592;2022-10-16T09:32:14;1.45;;;0.50;;
51995;SDS011;38010;53.264;6.592;2022-10-16T09:35:01;2.13;;;0.50;;
51995;SDS011;38010;53.264;6.592;2022-10-16T09:37:27;1.85;;;0.60;;
51995;SDS011;38010;53.264;6.592;2022-10-16T09:39:53;0.82;;;0.55;;
51995;SDS011;38010;53.264;6.592;2022-10-16T09:42:23;2.03;;;0.50;;
51995;SDS011;38010;53.264;6.592;2022-10-16T09:44:59;1.42;;;0.60;;
51995;SDS011;38010;53.264;6.592;2022-10-16T09:47:28;1.45;;;0.50;;
51995;SDS011;38010;53.264;6.592;2022-10-16T09:49:56;1.05;;;0.57;;
51995;SDS011;38010;53.264;6.592;2022-10-16T09:52:31;1.80;;;0.70;;
51995;SDS011;38010;53.264;6.592;2022-10-16T09:55:01;1.48;;;0.73;;
51995;SDS011;38010;53.264;6.592;2022-10-16T09:57:48;2.10;;;0.70;;
51995;SDS011;38010;53.264;6.592;2022-10-16T10:00:21;2.73;;;0.80;;
51995;SDS011;38010;53.264;6.592;2022-10-16T10:02:49;1.85;;;0.60;;
51995;SDS011;38010;53.264;6.592;2022-10-16T10:05:19;1.42;;;0.68;;
51995;SDS011;38010;53.264;6.592;2022-10-16T10:07:52;2.53;;;0.73;;
51995;SDS011;38010;53.264;6.592;2022-10-16T10:10:22;1.63;;;0.70;;
51995;SDS011;38010;53.264;6.592;2022-10-16T10:12:58;2.35;;;0.75;;
51995;SDS011;38010;53.264;6.592;2022-10-16T10:15:24;1.60;;;0.60;;
51995;SDS011;38010;53.264;6.592;2022-10-16T10:17:56;2.70;;;0.80;;
51995;SDS011;38010;53.264;6.592;2022-10-16T10:20:33;2.60;;;0.90;;
51995;SDS011;38010;53.264;6.592;2022-10-16T10:23:18;2.83;;;0.75;;
51995;SDS011;38010;53.264;6.592;2022-10-16T10:25:51;2.65;;;0.90;;
51995;SDS011;38010;53.264;6.592;2022-10-16T10:31:03;2.22;;;0.95;;
51995;SDS011;38010;53.264;6.592;2022-10-16T10:36:34;2.22;;;1.00;;
51995;SDS011;38010;53.264;6.592;2022-10-16T10:39:38;3.85;;;0.95;;
51995;SDS011;38010;53.264;6.592;2022-10-16T10:47:54;1.95;;;0.82;;
51995;SDS011;38010;53.264;6.592;2022-10-16T11:01:17;3.88;;;1.20;;
51995;SDS011;38010;53.264;6.592;2022-10-16T11:04:12;4.10;;;1.13;;
51995;SDS011;38010;53.264;6.592;2022-10-16T11:06:48;2.90;;;1.10;;
51995;SDS011;38010;53.264;6.592;2022-10-16T11:11:50;2.13;;;1.15;;
51995;SDS011;38010;53.264;6.592;2022-10-16T11:14:19;2.05;;;1.00;;
51995;SDS011;38010;53.264;6.592;2022-10-16T11:20:10;3.22;;;1.08;;
51995;SDS011;38010;53.264;6.592;2022-10-16T11:22:38;3.55;;;1.20;;
51995;SDS011;38010;53.264;6.592;2022-10-16T11:27:43;2.28;;;1.05;;
51995;SDS011;38010;53.264;6.592;2022-10-16T11:30:15;3.35;;;1.25;;
51995;SDS011;38010;53.264;6.592;2022-10-16T11:32:49;2.53;;;0.90;;
51995;SDS011;38010;53.264;6.592;2022-10-16T11:40:52;4.43;;;1.33;;
51995;SDS011;38010;53.264;6.592;2022-10-16T11:43:27;2.80;;;0.80;;
51995;SDS011;38010;53.264;6.592;2022-10-16T11:49:01;2.90;;;0.90;;
51995;SDS011;38010;53.264;6.592;2022-10-16T11:51:34;1.45;;;0.90;;
51995;SDS011;38010;53.264;6.592;2022-10-16T11:54:08;3.10;;;1.15;;
51995;SDS011;38010;53.264;6.592;2022-10-16T11:56:39;3.95;;;1.20;;
51995;SDS011;38010;53.264;6.592;2022-10-16T12:05:14;4.35;;;1.40;;
51995;SDS011;38010;53.264;6.592;2022-10-16T12:08:08;1.75;;;0.90;;
51995;SDS011;38010;53.264;6.592;2022-10-16T12:10:36;2.58;;;0.90;;
51995;SDS011;38010;53.264;6.592;2022-10-16T12:13:05;3.60;;;1.10;;
51995;SDS011;38010;53.264;6.592;2022-10-16T12:15:32;5.50;;;1.13;;
51995;SDS011;38010;53.264;6.592;2022-10-16T12:17:59;3.88;;;1.20;;
51995;SDS011;38010;53.264;6.592;2022-10-16T12:20:26;2.13;;;0.80;;
51995;SDS011;38010;53.264;6.592;2022-10-16T12:23:06;2.75;;;0.90;;
51995;SDS011;38010;53.264;6.592;2022-10-16T12:25:43;3.88;;;0.90;;
51995;SDS011;38010;53.264;6.592;2022-10-16T12:28:21;3.13;;;1.27;;
51995;SDS011;38010;53.264;6.592;2022-10-16T12:30:55;2.15;;;0.90;;
51995;SDS011;38010;53.264;6.592;2022-10-16T12:33:29;3.03;;;0.70;;
51995;SDS011;38010;53.264;6.592;2022-10-16T12:35:58;3.20;;;0.90;;
51995;SDS011;38010;53.264;6.592;2022-10-16T12:38:26;3.38;;;0.95;;
51995;SDS011;38010;53.264;6.592;2022-10-16T12:41:04;3.40;;;0.98;;
51995;SDS011;38010;53.264;6.592;2022-10-16T12:48:39;3.95;;;1.10;;
51995;SDS011;38010;53.264;6.592;2022-10-16T12:56:38;2.22;;;0.80;;
51995;SDS011;38010;53.264;6.592;2022-10-16T12:59:18;3.13;;;0.90;;
51995;SDS011;38010;53.264;6.592;2022-10-16T13:07:22;1.60;;;0.73;;
51995;SDS011;38010;53.264;6.592;2022-10-16T13:10:19;2.17;;;0.80;;
51995;SDS011;38010;53.264;6.592;2022-10-16T13:13:10;1.73;;;0.73;;
51995;SDS011;38010;53.264;6.592;2022-10-16T13:16:04;2.20;;;0.70;;
51995;SDS011;38010;53.264;6.592;2022-10-16T13:18:48;2.38;;;0.80;;
51995;SDS011;38010;53.264;6.592;2022-10-16T13:27:10;2.42;;;0.80;;
51995;SDS011;38010;53.264;6.592;2022-10-16T13:30:17;2.30;;;0.70;;
51995;SDS011;38010;53.264;6.592;2022-10-16T13:32:47;1.25;;;0.55;;
51995;SDS011;38010;53.264;6.592;2022-10-16T13:35:26;1.40;;;0.60;;
51995;SDS011;38010;53.264;6.592;2022-10-16T13:38:04;1.55;;;0.60;;
51995;SDS011;38010;53.264;6.592;2022-10-16T13:40:29;2.40;;;0.73;;
51995;SDS011;38010;53.264;6.592;2022-10-16T13:42:55;1.95;;;0.65;;
51995;SDS011;38010;53.264;6.592;2022-10-16T13:45:22;1.67;;;0.82;;
51995;SDS011;38010;53.264;6.592;2022-10-16T13:48:00;2.08;;;0.70;;
51995;SDS011;38010;53.264;6.592;2022-10-16T13:50:30;2.05;;;0.50;;
51995;SDS011;38010;53.264;6.592;2022-10-16T13:53:05;1.23;;;0.60;;
51995;SDS011;38010;53.264;6.592;2022-10-16T13:55:40;1.20;;;0.60;;
51995;SDS011;38010;53.264;6.592;2022-10-16T13:58:10;1.75;;;0.80;;
51995;SDS011;38010;53.264;6.592;2022-10-16T14:00:38;1.73;;;0.60;;
51995;SDS011;38010;53.264;6.592;2022-10-16T14:03:05;0.68;;;0.60;;
51995;SDS011;38010;53.264;6.592;2022-10-16T14:05:42;1.90;;;0.70;;
51995;SDS011;38010;53.264;6.592;2022-10-16T14:08:14;1.35;;;0.60;;
51995;SDS011;38010;53.264;6.592;2022-10-16T14:10:40;0.98;;;0.55;;
51995;SDS011;38010;53.264;6.592;2022-10-16T14:13:06;2.35;;;0.70;;
51995;SDS011;38010;53.264;6.592;2022-10-16T14:15:38;2.50;;;0.70;;
51995;SDS011;38010;53.264;6.592;2022-10-16T14:18:03;1.58;;;0.63;;
51995;SDS011;38010;53.264;6.592;2022-10-16T14:20:31;2.38;;;0.95;;
51995;SDS011;38010;53.264;6.592;2022-10-16T14:23:02;2.33;;;0.80;;
51995;SDS011;38010;53.264;6.592;2022-10-16T14:25:42;3.08;;;0.60;;
51995;SDS011;38010;53.264;6.592;2022-10-16T14:28:15;2.20;;;0.77;;
51995;SDS011;38010;53.264;6.592;2022-10-16T14:35:59;2.40;;;0.85;;
51995;SDS011;38010;53.264;6.592;2022-10-16T14:38:34;1.75;;;0.75;;
51995;SDS011;38010;53.264;6.592;2022-10-16T14:41:00;1.92;;;0.98;;
51995;SDS011;38010;53.264;6.592;2022-10-16T14:43:30;3.13;;;1.10;;
51995;SDS011;38010;53.264;6.592;2022-10-16T14:46:01;3.67;;;1.00;;
51995;SDS011;38010;53.264;6.592;2022-10-16T14:48:40;2.47;;;0.80;;
51995;SDS011;38010;53.264;6.592;2022-10-16T14:51:08;1.67;;;0.80;;
51995;SDS011;38010;53.264;6.592;2022-10-16T14:53:39;1.95;;;0.73;;
51995;SDS011;38010;53.264;6.592;2022-10-16T14:56:07;2.10;;;0.73;;
51995;SDS011;38010;53.264;6.592;2022-10-16T14:58:34;1.58;;;0.70;;
51995;SDS011;38010;53.264;6.592;2022-10-16T15:01:00;2.72;;;0.80;;
51995;SDS011;38010;53.264;6.592;2022-10-16T15:03:26;1.42;;;0.80;;
51995;SDS011;38010;53.264;6.592;2022-10-16T15:05:51;1.70;;;0.88;;
51995;SDS011;38010;53.264;6.592;2022-10-16T15:08:17;1.63;;;0.80;;
51995;SDS011;38010;53.264;6.592;2022-10-16T15:10:43;1.98;;;0.77;;
51995;SDS011;38010;53.264;6.592;2022-10-16T15:13:11;2.47;;;0.85;;
51995;SDS011;38010;53.264;6.592;2022-10-16T15:15:42;1.98;;;0.70;;
51995;SDS011;38010;53.264;6.592;2022-10-16T15:18:10;2.53;;;0.70;;
51995;SDS011;38010;53.264;6.592;2022-10-16T15:20:37;1.30;;;0.50;;
51995;SDS011;38010;53.264;6.592;2022-10-16T15:23:05;2.58;;;0.70;;
51995;SDS011;38010;53.264;6.592;2022-10-16T15:25:46;1.77;;;0.60;;
51995;SDS011;38010;53.264;6.592;2022-10-16T15:28:13;1.33;;;0.70;;
51995;SDS011;38010;53.264;6.592;2022-10-16T15:30:40;3.10;;;0.68;;
51995;SDS011;38010;53.264;6.592;2022-10-16T15:33:10;2.47;;;0.82;;
51995;SDS011;38010;53.264;6.592;2022-10-16T15:35:38;1.90;;;0.73;;
51995;SDS011;38010;53.264;6.592;2022-10-16T15:38:04;2.25;;;0.98;;
51995;SDS011;38010;53.264;6.592;2022-10-16T15:40:30;1.50;;;0.70;;
51995;SDS011;38010;53.264;6.592;2022-10-16T15:42:56;2.33;;;0.70;;
51995;SDS011;38010;53.264;6.592;2022-10-16T15:45:21;0.90;;;0.70;;
51995;SDS011;38010;53.264;6.592;2022-10-16T15:47:47;2.13;;;0.80;;
51995;SDS011;38010;53.264;6.592;2022-10-16T15:50:13;1.52;;;0.65;;
51995;SDS011;38010;53.264;6.592;2022-10-16T15:52:40;1.58;;;0.60;;
51995;SDS011;38010;53.264;6.592;2022-10-16T15:55:07;3.28;;;0.70;;
51995;SDS011;38010;53.264;6.592;2022-10-16T15:57:34;1.92;;;0.70;;
51995;SDS011;38010;53.264;6.592;2022-10-16T16:00:03;2.50;;;0.98;;
51995;SDS011;38010;53.264;6.592;2022-10-16T16:02:33;3.65;;;0.90;;
51995;SDS011;38010;53.264;6.592;2022-10-16T16:04:58;6.35;;;0.82;;
51995;SDS011;38010;53.264;6.592;2022-10-16T16:07:24;1.65;;;0.65;;
51995;SDS011;38010;53.264;6.592;2022-10-16T16:09:50;2.92;;;0.98;;
51995;SDS011;38010;53.264;6.592;2022-10-16T16:12:15;2.17;;;1.00;;
51995;SDS011;38010;53.264;6.592;2022-10-16T16:14:41;2.78;;;1.10;;
51995;SDS011;38010;53.264;6.592;2022-10-16T16:17:07;2.22;;;0.90;;
51995;SDS011;38010;53.264;6.592;2022-10-16T16:19:33;2.10;;;0.77;;
51995;SDS011;38010;53.264;6.592;2022-10-16T16:21:59;2.25;;;1.10;;
51995;SDS011;38010;53.264;6.592;2022-10-16T16:24:24;2.10;;;1.00;;
51995;SDS011;38010;53.264;6.592;2022-10-16T16:26:50;2.63;;;1.17;;
51995;SDS011;38010;53.264;6.592;2022-10-16T16:29:16;2.90;;;1.35;;
51995;SDS011;38010;53.264;6.592;2022-10-16T16:31:41;4.70;;;1.70;;
51995;SDS011;38010;53.264;6.592;2022-10-16T16:34:08;5.88;;;1.90;;